createdAt,value
2018-08-16T00:01:12.799Z,24.10
2018-08-16T00:03:45.389Z,24.10
2018-08-16T00:06:17.786Z,24.00
2018-08-16T00:08:50.197Z,23.90
2018-08-16T00:11:22.746Z,23.80
2018-08-16T00:13:55.212Z,23.80
2018-08-16T00:16:30.546Z,23.80
2018-08-16T00:19:02.962Z,23.70
2018-08-16T00:21:35.517Z,23.50
2018-08-16T00:24:07.958Z,23.50
2018-08-16T00:26:41.334Z,23.40
2018-08-16T00:29:13.856Z,23.30
2018-08-16T00:31:47.081Z,23.20
2018-08-16T00:34:19.558Z,23.20
2018-08-16T00:36:52.135Z,23.20
2018-08-16T00:39:24.578Z,23.10
2018-08-16T00:41:57.190Z,23.20
2018-08-16T00:44:29.803Z,23.20
2018-08-16T00:47:02.283Z,23.20
2018-08-16T00:49:34.759Z,23.20
2018-08-16T00:52:11.855Z,23.20
2018-08-16T00:54:46.981Z,23.20
2018-08-16T00:57:19.404Z,23.20
2018-08-16T00:59:52.024Z,23.10
2018-08-16T01:02:26.104Z,23.10
2018-08-16T01:04:58.531Z,23.10
2018-08-16T01:07:31.441Z,23.00
2018-08-16T01:10:04.101Z,22.90
2018-08-16T01:12:37.013Z,22.90
2018-08-16T01:15:12.423Z,22.80
2018-08-16T01:17:44.989Z,22.80
2018-08-16T01:20:17.797Z,22.70
2018-08-16T01:22:50.428Z,22.70
2018-08-16T01:25:23.765Z,22.50
2018-08-16T01:27:56.285Z,22.50
2018-08-16T01:30:28.841Z,22.40
2018-08-16T01:33:01.649Z,22.30
2018-08-16T01:35:34.008Z,22.40
2018-08-16T01:38:06.506Z,22.30
2018-08-16T01:40:38.915Z,22.30
2018-08-16T01:43:12.342Z,22.10
2018-08-16T01:45:45.184Z,22.10
2018-08-16T01:48:17.680Z,21.90
2018-08-16T01:50:50.756Z,21.90
2018-08-16T01:53:23.861Z,21.70
2018-08-16T01:55:56.406Z,21.60
2018-08-16T01:58:30.560Z,21.60
2018-08-16T02:01:02.994Z,21.70
2018-08-16T02:03:35.532Z,21.70
2018-08-16T02:06:08.007Z,21.60
2018-08-16T02:08:41.524Z,21.60
2018-08-16T02:11:15.165Z,21.60
2018-08-16T02:13:49.120Z,21.70
2018-08-16T02:16:21.864Z,21.60
2018-08-16T02:18:56.609Z,21.50
2018-08-16T02:21:31.665Z,21.50
2018-08-16T02:24:06.428Z,21.50
2018-08-16T02:26:39.281Z,21.40
2018-08-16T02:29:11.755Z,21.40
2018-08-16T02:31:44.197Z,21.40
2018-08-16T02:34:20.246Z,21.40
2018-08-16T02:38:22.697Z,21.40
2018-08-16T02:40:55.904Z,21.30
2018-08-16T02:43:30.857Z,21.20
2018-08-16T02:46:04.605Z,21.20
2018-08-16T02:48:38.581Z,21.10
2018-08-16T02:51:11.390Z,21.10
2018-08-16T02:53:44.925Z,21.00
2018-08-16T02:56:17.658Z,21.00
2018-08-16T02:58:51.074Z,21.00
2018-08-16T03:01:25.526Z,21.10
2018-08-16T03:03:58.932Z,21.10
2018-08-16T03:06:33.525Z,21.10
2018-08-16T03:09:09.701Z,21.00
2018-08-16T03:11:42.159Z,21.00
2018-08-16T03:14:15.841Z,20.90
2018-08-16T03:16:48.788Z,20.90
2018-08-16T03:19:22.402Z,20.90
2018-08-16T03:21:54.856Z,20.90
2018-08-16T03:24:27.359Z,21.00
2018-08-16T03:26:59.985Z,21.00
2018-08-16T03:29:32.602Z,21.00
2018-08-16T03:32:11.964Z,20.90
2018-08-16T03:34:48.765Z,20.80
2018-08-16T03:37:21.235Z,20.80
2018-08-16T03:39:53.734Z,20.70
2018-08-16T03:42:28.136Z,20.60
2018-08-16T03:45:00.951Z,20.50
2018-08-16T03:47:34.822Z,20.60
2018-08-16T03:50:08.430Z,20.50
2018-08-16T03:52:40.987Z,20.50
2018-08-16T03:55:13.604Z,20.30
2018-08-16T03:57:46.271Z,20.20
2018-08-16T04:00:18.743Z,20.20
2018-08-16T04:02:51.126Z,20.10
2018-08-16T04:05:23.610Z,20.00
2018-08-16T04:07:56.020Z,20.00
2018-08-16T04:10:28.649Z,20.00
2018-08-16T04:13:02.208Z,20.00
2018-08-16T04:15:34.770Z,20.00
2018-08-16T04:18:07.440Z,20.00
2018-08-16T04:20:46.157Z,19.90
2018-08-16T04:23:23.667Z,19.90
2018-08-16T04:28:40.136Z,19.90
2018-08-16T04:31:14.848Z,19.80
2018-08-16T04:33:53.270Z,19.80
2018-08-16T04:36:41.480Z,19.70
2018-08-16T04:39:21.389Z,19.70
2018-08-16T04:42:13.422Z,19.60
2018-08-16T04:47:42.541Z,19.50
2018-08-16T04:50:24.784Z,19.50
2018-08-16T04:55:41.916Z,19.50
2018-08-16T04:58:15.455Z,19.50
2018-08-16T05:00:47.856Z,19.40
2018-08-16T05:03:20.287Z,19.40
2018-08-16T05:05:56.511Z,19.40
2018-08-16T05:08:38.681Z,19.40
2018-08-16T05:11:19.204Z,19.40
2018-08-16T05:13:54.532Z,19.40
2018-08-16T05:16:28.854Z,19.30
2018-08-16T05:19:01.621Z,19.30
2018-08-16T05:21:36.961Z,19.30
2018-08-16T05:24:12.681Z,19.40
2018-08-16T05:26:59.085Z,19.30
2018-08-16T05:29:31.842Z,19.20
2018-08-16T05:32:04.343Z,19.10
2018-08-16T05:34:37.096Z,19.10
2018-08-16T05:37:09.861Z,19.10
2018-08-16T05:39:42.813Z,19.00
2018-08-16T05:42:16.259Z,19.00
2018-08-16T05:44:49.197Z,19.00
2018-08-16T05:47:21.730Z,19.00
2018-08-16T05:49:54.320Z,19.00
2018-08-16T05:52:26.737Z,19.10
2018-08-16T05:54:59.661Z,19.20
2018-08-16T05:57:33.053Z,19.10
2018-08-16T06:00:05.784Z,19.10
2018-08-16T06:02:38.172Z,19.00
2018-08-16T06:05:16.699Z,19.00
2018-08-16T06:07:50.273Z,19.00
2018-08-16T06:10:22.696Z,18.90
2018-08-16T06:12:55.645Z,18.90
2018-08-16T06:15:28.544Z,18.90
2018-08-16T06:18:01.135Z,18.90
2018-08-16T06:20:34.569Z,19.10
2018-08-16T06:23:07.219Z,19.00
2018-08-16T06:25:40.136Z,19.00
2018-08-16T06:28:13.034Z,19.00
2018-08-16T06:30:50.142Z,19.00
2018-08-16T06:33:25.831Z,19.00
2018-08-16T06:38:53.035Z,18.80
2018-08-16T06:41:27.723Z,18.80
2018-08-16T06:44:01.133Z,18.80
2018-08-16T06:46:33.805Z,18.80
2018-08-16T06:49:06.856Z,18.80
2018-08-16T06:51:39.952Z,18.70
2018-08-16T06:54:21.528Z,18.70
2018-08-16T06:57:06.828Z,18.60
2018-08-16T06:59:42.376Z,18.60
2018-08-16T07:02:14.823Z,18.60
2018-08-16T07:04:50.800Z,18.50
2018-08-16T07:07:23.650Z,18.50
2018-08-16T07:09:56.278Z,18.50
2018-08-16T07:12:28.856Z,18.40
2018-08-16T07:15:01.512Z,18.30
2018-08-16T07:17:34.073Z,18.30
2018-08-16T07:20:11.338Z,18.30
2018-08-16T07:22:45.519Z,18.30
2018-08-16T07:25:18.349Z,18.20
2018-08-16T07:28:02.007Z,18.30
2018-08-16T07:30:46.755Z,18.20
2018-08-16T07:46:34.175Z,18.10
2018-08-16T07:51:53.513Z,18.20
2018-08-16T08:00:07.508Z,18.00
2018-08-16T08:02:48.962Z,17.90
2018-08-16T08:10:59.635Z,17.80
2018-08-16T08:13:45.395Z,17.70
2018-08-16T08:16:41.918Z,17.70
2018-08-16T08:22:09.672Z,17.60
2018-08-16T08:24:45.117Z,17.60
2018-08-16T08:27:19.186Z,17.60
2018-08-16T08:29:52.313Z,17.60
2018-08-16T08:32:25.429Z,17.60
2018-08-16T08:34:58.536Z,17.60
2018-08-16T08:37:40.933Z,17.50
2018-08-16T08:40:13.920Z,17.50
2018-08-16T08:42:48.308Z,17.50
2018-08-16T08:45:21.785Z,17.50
2018-08-16T08:47:57.681Z,17.50
2018-08-16T08:50:30.927Z,17.40
2018-08-16T08:54:13.977Z,17.40
2018-08-16T08:56:56.430Z,17.50
2018-08-16T08:59:29.846Z,17.40
2018-08-16T09:02:02.956Z,17.50
2018-08-16T09:04:38.537Z,17.40
2018-08-16T09:07:13.154Z,17.40
2018-08-16T09:09:58.065Z,17.50
2018-08-16T09:12:42.866Z,17.50
2018-08-16T09:15:59.980Z,17.50
2018-08-16T09:18:34.710Z,17.50
2018-08-16T09:21:14.323Z,17.50
2018-08-16T09:23:48.595Z,17.60
2018-08-16T09:26:25.712Z,17.50
2018-08-16T09:28:59.136Z,17.50
2018-08-16T09:31:41.444Z,17.50
2018-08-16T09:34:24.749Z,17.50
2018-08-16T09:36:57.846Z,17.50
2018-08-16T09:39:33.139Z,17.50
2018-08-16T09:42:06.167Z,17.50
2018-08-16T09:44:39.297Z,17.50
2018-08-16T09:47:21.808Z,17.60
2018-08-16T09:49:54.971Z,17.60
2018-08-16T09:52:28.354Z,17.60
2018-08-16T09:55:01.399Z,17.60
2018-08-16T09:57:35.313Z,17.70
2018-08-16T10:00:14.398Z,17.70
2018-08-16T10:02:48.747Z,17.70
2018-08-16T10:05:21.862Z,17.70
2018-08-16T10:07:54.714Z,17.70
2018-08-16T10:10:27.796Z,17.70
2018-08-16T10:13:01.719Z,17.60
2018-08-16T10:15:34.697Z,17.60
2018-08-16T10:18:08.074Z,17.60
2018-08-16T10:20:41.190Z,17.60
2018-08-16T10:23:15.506Z,17.60
2018-08-16T10:25:48.725Z,17.50
2018-08-16T10:28:26.226Z,17.50
2018-08-16T10:31:00.008Z,17.50
2018-08-16T10:33:33.733Z,17.60
2018-08-16T10:36:07.775Z,17.50
2018-08-16T10:38:41.370Z,17.60
2018-08-16T10:41:16.085Z,17.70
2018-08-16T10:43:48.909Z,17.70
2018-08-16T10:46:21.818Z,17.80
2018-08-16T10:48:54.842Z,17.90
2018-08-16T10:51:27.984Z,18.00
2018-08-16T10:54:01.121Z,18.00
2018-08-16T10:56:34.465Z,18.00
2018-08-16T10:59:09.971Z,18.00
2018-08-16T11:01:43.254Z,18.00
2018-08-16T11:04:17.530Z,18.00
2018-08-16T11:06:50.466Z,18.00
2018-08-16T11:09:23.726Z,18.00
2018-08-16T11:11:56.764Z,18.00
2018-08-16T11:14:30.046Z,18.00
2018-08-16T11:17:03.085Z,18.00
2018-08-16T11:19:36.549Z,18.00
2018-08-16T11:22:09.736Z,18.00
2018-08-16T11:24:42.805Z,18.00
2018-08-16T11:27:16.008Z,18.00
2018-08-16T11:29:49.494Z,18.00
2018-08-16T11:32:22.478Z,18.00
2018-08-16T11:34:55.721Z,18.00
2018-08-16T11:37:29.462Z,18.00
2018-08-16T11:40:02.731Z,18.00
2018-08-16T11:42:35.667Z,17.90
2018-08-16T11:45:19.087Z,17.90
2018-08-16T11:47:52.343Z,17.90
2018-08-16T11:50:25.377Z,17.90
2018-08-16T11:52:58.765Z,17.90
2018-08-16T11:55:31.779Z,17.80
2018-08-16T11:58:05.328Z,17.80
2018-08-16T12:00:39.550Z,17.80
2018-08-16T12:03:12.763Z,17.90
2018-08-16T12:05:46.473Z,17.90
2018-08-16T12:08:19.386Z,18.00
2018-08-16T12:10:52.684Z,18.00
2018-08-16T12:13:25.800Z,18.10
2018-08-16T12:16:00.153Z,18.10
2018-08-16T12:18:33.254Z,18.10
2018-08-16T12:21:06.346Z,18.20
2018-08-16T12:23:39.393Z,18.30
2018-08-16T12:26:19.597Z,18.40
2018-08-16T12:28:52.839Z,18.50
2018-08-16T12:31:25.934Z,18.70
2018-08-16T12:33:59.096Z,18.80
2018-08-16T12:36:32.638Z,18.90
2018-08-16T12:39:06.818Z,18.90
2018-08-16T12:41:39.929Z,19.00
2018-08-16T12:44:13.965Z,19.10
2018-08-16T12:46:47.186Z,19.10
2018-08-16T12:49:20.171Z,19.10
2018-08-16T12:51:53.230Z,19.30
2018-08-16T12:54:26.462Z,19.30
2018-08-16T12:57:11.214Z,19.50
2018-08-16T12:59:50.257Z,19.50
2018-08-16T13:02:23.649Z,19.60
2018-08-16T13:04:56.712Z,19.70
2018-08-16T13:07:29.776Z,19.70
2018-08-16T13:10:02.468Z,19.70
2018-08-16T13:12:36.068Z,19.80
2018-08-16T13:15:09.997Z,19.90
2018-08-16T13:17:49.148Z,20.20
2018-08-16T13:20:22.119Z,20.20
2018-08-16T13:22:55.158Z,20.30
2018-08-16T13:25:29.325Z,20.40
2018-08-16T13:28:02.437Z,20.40
2018-08-16T13:30:35.474Z,20.40
2018-08-16T13:33:08.391Z,20.40
2018-08-16T13:35:41.226Z,20.40
2018-08-16T13:38:14.190Z,20.50
2018-08-16T13:40:47.556Z,20.60
2018-08-16T13:43:20.688Z,20.80
2018-08-16T13:45:53.845Z,20.80
2018-08-16T13:48:27.142Z,20.90
2018-08-16T13:51:00.174Z,21.00
2018-08-16T13:53:37.625Z,21.10
2018-08-16T13:56:14.964Z,21.20
2018-08-16T13:58:48.160Z,21.10
2018-08-16T14:01:21.859Z,21.10
2018-08-16T14:03:54.798Z,21.00
2018-08-16T14:06:28.025Z,20.90
2018-08-16T14:09:00.766Z,21.00
2018-08-16T14:11:33.668Z,21.10
2018-08-16T14:14:06.578Z,21.10
2018-08-16T14:16:39.522Z,21.20
2018-08-16T14:19:12.330Z,21.30
2018-08-16T14:21:45.198Z,21.60
2018-08-16T14:24:18.041Z,21.80
2018-08-16T14:26:51.433Z,22.00
2018-08-16T14:29:24.177Z,22.10
2018-08-16T14:31:57.081Z,22.10
2018-08-16T14:34:30.159Z,22.20
2018-08-16T14:37:03.009Z,22.30
2018-08-16T14:39:35.769Z,22.30
2018-08-16T14:42:08.511Z,22.40
2018-08-16T14:44:41.234Z,22.30
2018-08-16T14:47:14.467Z,22.30
2018-08-16T14:49:47.258Z,22.40
2018-08-16T14:52:20.471Z,22.40
2018-08-16T14:54:54.430Z,22.50
2018-08-16T14:57:27.761Z,22.70
2018-08-16T15:00:02.081Z,22.60
2018-08-16T15:02:35.011Z,22.60
2018-08-16T15:05:08.692Z,22.70
2018-08-16T15:07:41.659Z,22.80
2018-08-16T15:10:14.306Z,22.90
2018-08-16T15:12:47.718Z,23.10
2018-08-16T15:15:21.530Z,23.00
2018-08-16T15:19:31.685Z,23.10
2018-08-16T15:22:04.859Z,23.10
2018-08-16T15:24:37.978Z,23.00
2018-08-16T15:27:13.186Z,23.00
2018-08-16T15:29:47.433Z,23.00
2018-08-16T15:32:20.381Z,23.20
2018-08-16T15:34:53.385Z,23.20
2018-08-16T15:37:26.870Z,23.20
2018-08-16T15:40:00.422Z,23.30
2018-08-16T15:42:33.197Z,23.40
2018-08-16T15:45:05.932Z,23.40
2018-08-16T15:47:39.180Z,23.40
2018-08-16T15:50:12.017Z,23.50
2018-08-16T15:52:44.847Z,23.80
2018-08-16T15:55:17.790Z,24.10
2018-08-16T15:57:50.734Z,24.30
2018-08-16T16:00:24.320Z,24.20
2018-08-16T16:02:57.709Z,24.10
2018-08-16T16:05:30.761Z,23.90
2018-08-16T16:08:04.077Z,23.60
2018-08-16T16:10:38.121Z,23.70
2018-08-16T16:13:12.969Z,23.90
2018-08-16T16:15:45.853Z,23.80
2018-08-16T16:18:18.556Z,23.70
2018-08-16T16:20:51.383Z,23.80
2018-08-16T16:23:24.037Z,24.00
2018-08-16T16:25:57.073Z,24.10
2018-08-16T16:28:30.187Z,24.10
2018-08-16T16:31:04.438Z,24.40
2018-08-16T16:33:38.412Z,24.70
2018-08-16T16:36:12.640Z,24.70
2018-08-16T16:38:45.509Z,24.70
2018-08-16T16:41:19.027Z,24.70
2018-08-16T16:43:52.744Z,24.90
2018-08-16T16:46:25.735Z,24.70
2018-08-16T16:48:59.309Z,24.70
2018-08-16T16:51:32.385Z,24.70
2018-08-16T16:54:05.926Z,24.70
2018-08-16T16:56:39.161Z,24.80
2018-08-16T16:59:12.017Z,24.70
2018-08-16T17:01:45.501Z,24.80
2018-08-16T17:04:18.722Z,24.80
2018-08-16T17:06:53.788Z,24.90
2018-08-16T17:09:26.608Z,24.90
2018-08-16T17:12:00.014Z,24.90
2018-08-16T17:14:34.074Z,25.00
2018-08-16T17:17:07.426Z,25.00
2018-08-16T17:19:40.451Z,25.00
2018-08-16T17:22:13.444Z,25.00
2018-08-16T17:24:46.268Z,25.00
2018-08-16T17:27:19.089Z,24.90
2018-08-16T17:29:52.903Z,25.10
2018-08-16T17:32:26.421Z,25.10
2018-08-16T17:34:59.914Z,25.10
2018-08-16T17:37:50.248Z,25.20
2018-08-16T17:40:23.590Z,25.20
2018-08-16T17:42:56.313Z,25.10
2018-08-16T17:45:31.477Z,25.40
2018-08-16T17:48:05.981Z,25.50
2018-08-16T17:50:38.709Z,25.60
2018-08-16T17:53:11.754Z,25.40
2018-08-16T17:55:45.253Z,25.20
2018-08-16T17:58:18.531Z,25.10
2018-08-16T18:00:52.028Z,25.00
2018-08-16T18:03:25.482Z,25.10
2018-08-16T18:05:58.838Z,25.80
2018-08-16T18:08:32.447Z,26.30
2018-08-16T18:11:05.770Z,26.50
2018-08-16T18:13:39.934Z,26.90
2018-08-16T18:16:13.335Z,27.10
2018-08-16T18:18:46.406Z,27.00
2018-08-16T18:28:10.913Z,27.20
2018-08-16T18:30:44.675Z,27.30
2018-08-16T18:33:21.253Z,27.20
2018-08-16T18:35:57.141Z,27.20
2018-08-16T18:38:30.863Z,27.40
2018-08-16T18:41:04.448Z,27.40
2018-08-16T18:43:41.216Z,27.20
2018-08-16T18:46:14.312Z,26.70
2018-08-16T18:48:47.503Z,27.10
2018-08-16T18:51:23.285Z,27.10
2018-08-16T18:53:56.181Z,26.80
2018-08-16T18:56:32.431Z,27.10
2018-08-16T18:59:05.919Z,27.10
2018-08-16T19:01:39.276Z,26.90
2018-08-16T19:04:12.329Z,26.80
2018-08-16T19:06:45.692Z,26.70
2018-08-16T19:09:18.589Z,26.90
2018-08-16T19:11:51.590Z,27.20
2018-08-16T19:14:41.407Z,27.70
2018-08-16T19:17:14.228Z,28.00
2018-08-16T19:19:47.114Z,28.20
2018-08-16T19:22:19.890Z,28.20
2018-08-16T19:24:54.089Z,27.90
2018-08-16T19:27:26.881Z,27.80
2018-08-16T19:30:00.761Z,27.50
2018-08-16T19:32:33.589Z,27.40
2018-08-16T19:35:06.549Z,27.30
2018-08-16T19:37:40.455Z,27.10
2018-08-16T19:40:13.209Z,27.10
2018-08-16T19:42:47.000Z,26.90
2018-08-16T19:45:19.847Z,26.80
2018-08-16T19:47:54.623Z,26.80
2018-08-16T19:50:30.425Z,26.90
2018-08-16T19:53:03.521Z,26.90
2018-08-16T19:55:36.437Z,26.80
2018-08-16T19:58:09.231Z,26.30
2018-08-16T20:00:43.138Z,26.20
2018-08-16T20:03:15.993Z,26.00
2018-08-16T20:05:49.192Z,25.80
2018-08-16T20:08:21.824Z,25.70
2018-08-16T20:10:54.961Z,25.60
2018-08-16T20:13:28.108Z,25.40
2018-08-16T20:16:01.269Z,25.40
2018-08-16T20:18:34.556Z,25.50
2018-08-16T20:21:07.402Z,25.50
2018-08-16T20:23:40.173Z,25.40
2018-08-16T20:26:13.969Z,25.50
2018-08-16T20:28:47.056Z,25.30
2018-08-16T20:31:20.000Z,25.20
2018-08-16T20:33:53.912Z,25.10
2018-08-16T20:36:26.869Z,25.30
2018-08-16T20:39:00.040Z,25.30
2018-08-16T20:41:33.298Z,25.40
2018-08-16T20:44:06.952Z,25.50
2018-08-16T20:46:39.871Z,25.50
2018-08-16T20:49:13.014Z,25.50
2018-08-16T20:51:45.912Z,25.50
2018-08-16T20:54:19.697Z,25.40
2018-08-16T20:56:54.444Z,25.40
2018-08-16T20:59:27.281Z,25.30
2018-08-16T21:02:00.373Z,25.30
2018-08-16T21:04:34.450Z,25.40
2018-08-16T21:07:08.649Z,25.30
2018-08-16T21:09:41.353Z,25.30
2018-08-16T21:12:14.909Z,25.30
2018-08-16T21:14:47.855Z,25.20
2018-08-16T21:17:21.041Z,25.10
2018-08-16T21:19:53.783Z,25.00
2018-08-16T21:22:30.381Z,24.90
2018-08-16T21:25:03.325Z,24.80
2018-08-16T21:27:36.292Z,25.00
2018-08-16T21:30:11.106Z,25.10
2018-08-16T21:32:44.015Z,24.90
2018-08-16T21:35:19.370Z,24.90
2018-08-16T21:37:52.628Z,24.90
2018-08-16T21:40:27.155Z,24.90
2018-08-16T21:43:02.990Z,24.80
2018-08-16T21:45:36.049Z,24.70
2018-08-16T21:48:08.827Z,24.60
2018-08-16T21:50:41.974Z,24.60
2018-08-16T21:53:14.926Z,24.50
2018-08-16T21:55:47.696Z,24.60
2018-08-16T21:58:20.455Z,24.70
2018-08-16T22:00:56.379Z,24.60
2018-08-16T22:03:30.165Z,24.50
2018-08-16T22:06:05.072Z,24.50
2018-08-16T22:08:50.828Z,24.60
2018-08-16T22:11:25.136Z,24.50
2018-08-16T22:13:57.776Z,24.50
2018-08-16T22:16:30.528Z,24.30
2018-08-16T22:19:03.850Z,24.20
2018-08-16T22:21:37.700Z,24.10
2018-08-16T22:24:10.509Z,24.00
2018-08-16T22:26:43.386Z,24.00
2018-08-16T22:29:16.982Z,23.90
2018-08-16T22:31:49.821Z,24.00
2018-08-16T22:34:22.669Z,24.00
2018-08-16T22:36:55.396Z,24.10
2018-08-16T22:39:28.233Z,24.10
2018-08-16T22:42:01.139Z,24.10
2018-08-16T22:44:33.806Z,24.10
2018-08-16T22:47:06.774Z,24.20
2018-08-16T22:49:39.801Z,24.20
2018-08-16T22:52:12.744Z,24.10
2018-08-16T22:54:46.274Z,24.20
2018-08-16T22:57:19.365Z,24.20
2018-08-16T22:59:52.513Z,24.20
2018-08-16T23:02:25.403Z,24.30
2018-08-16T23:04:58.511Z,24.30
2018-08-16T23:07:31.228Z,24.20
2018-08-16T23:10:04.971Z,24.10
2018-08-16T23:12:37.902Z,24.10
2018-08-16T23:15:11.217Z,24.10
2018-08-16T23:17:44.006Z,23.90
2018-08-16T23:20:17.097Z,24.10
2018-08-16T23:22:50.048Z,24.00
2018-08-16T23:25:22.896Z,23.90
2018-08-16T23:27:57.317Z,23.80
2018-08-16T23:30:33.530Z,23.70
2018-08-16T23:33:06.414Z,23.70
2018-08-16T23:35:40.096Z,23.60
2018-08-16T23:38:13.205Z,23.50
2018-08-16T23:40:47.532Z,23.60
2018-08-16T23:43:20.857Z,23.50
2018-08-16T23:45:55.348Z,23.40
2018-08-16T23:48:33.964Z,23.40
2018-08-16T23:51:07.950Z,23.30
2018-08-16T23:53:41.399Z,23.20
2018-08-16T23:56:15.038Z,23.10
2018-08-16T23:58:47.887Z,23.10
